Umiak I — XJAR — position and weather

sailwx.info

Track history (hours):
 
Tides and Currents Weather Stations Pressure Air Temp Water Temp Dewpoint Dewpoint Depression Visibility Wind Speed Wind Dir Waves Ship Positions

Umiak I

Last reported at 2015-Jul-27 01:07 UTC. Time now 2015-Jul-29 15:54 UTC.
Position N 50°48' W 058°05'.

Length 188 m; draft 9.7 m.

Type: Cargo ship. MMSI: 316013340.

Date/timePositionNaut miles runAvg speedWind from/ knotsBaromVisibWave heightAir tempDewpointWater temp
2015-Jul-27 01:07N 50°48' W 058°05'611.7
2015-Jul-27 00:33N 50°52' W 057°58'1211.7
2015-Jul-26 23:33N 51°00' W 057°44'1211.8
2015-Jul-26 22:33N 51°09' W 057°31'1212.2
2015-Jul-26 21:33N 51°16' W 057°15'1312.8
2015-Jul-26 20:33N 51°23' W 056°57'  
2015-Jul-20 17:30N 58°47' W 004°59'1112.0
2015-Jul-20 16:33N 58°47' W 004°38'1212.0
2015-Jul-20 15:33N 58°47' W 004°15'1111.3
2015-Jul-20 14:33N 58°45' W 003°53'1413.9
2015-Jul-20 13:33N 58°44' W 003°26'1313.3
2015-Jul-20 12:33N 58°43' W 003°01'1110.9
2015-Jul-20 11:33N 58°42' W 002°39'41411.2
2015-Jul-18 22:31N 57°49' E 010°21'9 9.5
2015-Jul-18 21:32N 57°49' E 010°39'9 9.6
2015-Jul-18 20:33N 57°46' E 010°55'1111.0
2015-Jul-18 19:33N 57°41' E 011°14'1212.3
2015-Jul-18 18:33N 57°36' E 011°35'3 3.2
2015-Jul-18 17:28N 57°35' E 011°41'0 0.0
2015-Jul-18 16:28N 57°35' E 011°41'0 0.0
2015-Jul-18 15:31N 57°35' E 011°41'0 0.1
2015-Jul-18 14:22N 57°35' E 011°41'0 0.0
2015-Jul-18 13:31N 57°35' E 011°41'1 1.5
2015-Jul-18 12:33N 57°34' E 011°39'1110.7
2015-Jul-18 11:33N 57°24' E 011°32'1211.6
2015-Jul-18 10:33N 57°13' E 011°38'1111.4
2015-Jul-18 09:33N 57°02' E 011°45'1110.7
2015-Jul-18 08:33N 56°52' E 011°50'1010.2
2015-Jul-18 07:33N 56°41' E 011°50'1211.5
2015-Jul-18 06:28N 56°31' E 011°38'8610.9
2015-Jul-17 22:31N 55°07' E 011°03'1414.5
2015-Jul-17 21:33N 54°54' E 010°54'1413.8
2015-Jul-17 20:33N 54°40' E 010°59'1313.4
2015-Jul-17 19:33N 54°34' E 011°19'1313.3
2015-Jul-17 18:33N 54°28' E 011°40'1313.2
2015-Jul-17 17:33N 54°26' E 012°02'1110.8
2015-Jul-17 16:33N 54°35' E 012°14'1312.9
2015-Jul-17 15:33N 54°43' E 012°31'1313.2
2015-Jul-17 14:33N 54°50' E 012°50'1313.0
2015-Jul-17 13:33N 54°54' E 013°12'1312.9
2015-Jul-17 12:33N 54°58' E 013°33'1312.8
2015-Jul-17 11:32N 55°02' E 013°55'1312.5
2015-Jul-17 10:32N 55°10' E 014°11'1212.6
2015-Jul-17 09:33N 55°19' E 014°26'1312.6
2015-Jul-17 08:33N 55°28' E 014°42'1312.7
2015-Jul-17 07:33N 55°33' E 015°02'1212.4
2015-Jul-17 06:33N 55°39' E 015°22'1211.9
2015-Jul-17 05:33N 55°43' E 015°42'  
Track history (hours):
 
Tides and Currents Weather Stations Pressure Air Temp Water Temp Dewpoint Dewpoint Depression Visibility Wind Speed Wind Dir Waves Ship Positions

Umiak I

Last reported at 2015-Jul-27 01:07 UTC. Time now 2015-Jul-29 15:54 UTC.
Position N 50°48' W 058°05'.

Length 188 m; draft 9.7 m.

Type: Cargo ship. MMSI: 316013340.

Date/timePositionNaut miles runAvg speedWind from/ knotsBaromVisibWave heightAir tempDewpointWater temp
2015-Jul-27 01:07N 50°48' W 058°05'611.7
2015-Jul-27 00:33N 50°52' W 057°58'1211.7
2015-Jul-26 23:33N 51°00' W 057°44'1211.8
2015-Jul-26 22:33N 51°09' W 057°31'1212.2
2015-Jul-26 21:33N 51°16' W 057°15'1312.8
2015-Jul-26 20:33N 51°23' W 056°57'  
2015-Jul-20 17:30N 58°47' W 004°59'1112.0
2015-Jul-20 16:33N 58°47' W 004°38'1212.0
2015-Jul-20 15:33N 58°47' W 004°15'1111.3
2015-Jul-20 14:33N 58°45' W 003°53'1413.9
2015-Jul-20 13:33N 58°44' W 003°26'1313.3
2015-Jul-20 12:33N 58°43' W 003°01'1110.9
2015-Jul-20 11:33N 58°42' W 002°39'41411.2
2015-Jul-18 22:31N 57°49' E 010°21'9 9.5
2015-Jul-18 21:32N 57°49' E 010°39'9 9.6
2015-Jul-18 20:33N 57°46' E 010°55'1111.0
2015-Jul-18 19:33N 57°41' E 011°14'1212.3
2015-Jul-18 18:33N 57°36' E 011°35'3 3.2
2015-Jul-18 17:28N 57°35' E 011°41'0 0.0
2015-Jul-18 16:28N 57°35' E 011°41'0 0.0
2015-Jul-18 15:31N 57°35' E 011°41'0 0.1
2015-Jul-18 14:22N 57°35' E 011°41'0 0.0
2015-Jul-18 13:31N 57°35' E 011°41'1 1.5
2015-Jul-18 12:33N 57°34' E 011°39'1110.7
2015-Jul-18 11:33N 57°24' E 011°32'1211.6
2015-Jul-18 10:33N 57°13' E 011°38'1111.4
2015-Jul-18 09:33N 57°02' E 011°45'1110.7
2015-Jul-18 08:33N 56°52' E 011°50'1010.2
2015-Jul-18 07:33N 56°41' E 011°50'1211.5
2015-Jul-18 06:28N 56°31' E 011°38'8610.9
2015-Jul-17 22:31N 55°07' E 011°03'1414.5
2015-Jul-17 21:33N 54°54' E 010°54'1413.8
2015-Jul-17 20:33N 54°40' E 010°59'1313.4
2015-Jul-17 19:33N 54°34' E 011°19'1313.3
2015-Jul-17 18:33N 54°28' E 011°40'1313.2
2015-Jul-17 17:33N 54°26' E 012°02'1110.8
2015-Jul-17 16:33N 54°35' E 012°14'1312.9
2015-Jul-17 15:33N 54°43' E 012°31'1313.2
2015-Jul-17 14:33N 54°50' E 012°50'1313.0
2015-Jul-17 13:33N 54°54' E 013°12'1312.9
2015-Jul-17 12:33N 54°58' E 013°33'1312.8
2015-Jul-17 11:32N 55°02' E 013°55'1312.5
2015-Jul-17 10:32N 55°10' E 014°11'1212.6
2015-Jul-17 09:33N 55°19' E 014°26'1312.6
2015-Jul-17 08:33N 55°28' E 014°42'1312.7
2015-Jul-17 07:33N 55°33' E 015°02'1212.4
2015-Jul-17 06:33N 55°39' E 015°22'1211.9
2015-Jul-17 05:33N 55°43' E 015°42'  

Dump ship's entire track history